createdAt,value
2023-02-01T00:01:08.481Z,11.45
2023-02-01T00:05:21.651Z,11.30
2023-02-01T00:09:34.038Z,8.57
2023-02-01T00:13:46.453Z,8.05
2023-02-01T00:17:59.367Z,5.38
2023-02-01T00:22:11.833Z,7.80
2023-02-01T00:26:31.779Z,3.10
2023-02-01T00:30:44.144Z,7.70
2023-02-01T00:34:56.575Z,4.82
2023-02-01T00:39:09.340Z,8.80
2023-02-01T00:43:22.754Z,2.13
2023-02-01T00:47:35.194Z,6.22
2023-02-01T00:51:47.527Z,4.60
2023-02-01T00:56:00.919Z,6.07
2023-02-01T01:00:13.605Z,3.67
2023-02-01T01:04:28.257Z,1.60
2023-02-01T01:08:44.101Z,4.13
2023-02-01T01:12:56.414Z,2.58
2023-02-01T01:17:08.929Z,2.63
2023-02-01T01:21:22.485Z,4.32
2023-02-01T01:25:39.615Z,2.28
2023-02-01T01:29:52.042Z,3.05
2023-02-01T01:34:04.767Z,1.65
2023-02-01T01:38:17.255Z,8.77
2023-02-01T01:42:29.599Z,10.55
2023-02-01T01:46:42.172Z,1.83
2023-02-01T01:51:11.542Z,2.60
2023-02-01T01:55:26.124Z,2.70
2023-02-01T01:59:41.528Z,2.58
2023-02-01T02:03:54.933Z,2.47
2023-02-01T02:08:07.390Z,7.00
2023-02-01T02:12:19.724Z,18.38
2023-02-01T02:16:38.155Z,7.13
2023-02-01T02:20:56.069Z,10.27
2023-02-01T02:25:56.091Z,11.02
2023-02-01T02:30:45.850Z,4.88
2023-02-01T02:35:17.576Z,3.15
2023-02-01T02:39:56.072Z,11.10
2023-02-01T02:44:56.430Z,3.55
2023-02-01T02:49:14.778Z,14.38
2023-02-01T02:54:35.810Z,3.20
2023-02-01T02:59:07.323Z,3.63
2023-02-01T03:03:38.494Z,8.82
2023-02-01T03:08:12.933Z,7.90
2023-02-01T03:12:44.286Z,6.65
2023-02-01T03:17:04.978Z,6.03
2023-02-01T03:21:25.254Z,3.90
2023-02-01T03:25:39.685Z,5.13
2023-02-01T03:30:11.720Z,3.15
2023-02-01T03:34:24.633Z,7.03
2023-02-01T03:39:06.779Z,4.13
2023-02-01T03:43:23.087Z,7.57
2023-02-01T03:47:49.364Z,12.45
2023-02-01T03:52:05.094Z,4.82
2023-02-01T03:56:22.828Z,5.72
2023-02-01T04:00:36.454Z,13.10
2023-02-01T04:04:48.924Z,6.38
2023-02-01T04:09:03.993Z,5.38
2023-02-01T04:13:16.692Z,3.38
2023-02-01T04:17:29.288Z,5.10
2023-02-01T04:21:42.807Z,4.85
2023-02-01T04:25:56.040Z,2.67
2023-02-01T04:30:11.974Z,5.28
2023-02-01T04:34:26.010Z,2.80
2023-02-01T04:38:38.291Z,1.85
2023-02-01T04:42:50.725Z,2.42
2023-02-01T04:47:04.531Z,1.40
2023-02-01T04:51:16.844Z,2.33
2023-02-01T04:55:30.297Z,2.25
2023-02-01T04:59:42.747Z,2.58
2023-02-01T05:03:55.173Z,2.08
2023-02-01T05:08:07.506Z,6.35
2023-02-01T05:12:38.519Z,3.10
2023-02-01T05:16:50.841Z,2.20
2023-02-01T05:21:03.242Z,3.25
2023-02-01T05:25:15.766Z,2.25
2023-02-01T05:29:28.211Z,1.30
2023-02-01T05:33:40.746Z,4.82
2023-02-01T05:37:52.996Z,1.00
2023-02-01T05:42:05.372Z,8.73
2023-02-01T05:46:17.802Z,9.15
2023-02-01T05:50:30.131Z,5.13
2023-02-01T05:54:43.355Z,2.35
2023-02-01T05:58:55.786Z,4.75
2023-02-01T06:03:08.146Z,2.03
2023-02-01T06:07:20.490Z,2.22
2023-02-01T06:11:36.275Z,15.43
2023-02-01T06:15:49.021Z,6.07
2023-02-01T06:20:02.151Z,3.85
2023-02-01T06:24:14.626Z,2.75
2023-02-01T06:28:26.982Z,5.05
2023-02-01T06:32:40.577Z,4.15
2023-02-01T06:36:53.055Z,8.15
2023-02-01T06:41:06.420Z,6.25
2023-02-01T06:45:20.293Z,9.63
2023-02-01T06:49:32.635Z,6.10
2023-02-01T06:53:46.524Z,5.18
2023-02-01T06:57:58.952Z,6.20
2023-02-01T07:02:12.999Z,5.88
2023-02-01T07:06:25.851Z,6.13
2023-02-01T07:10:39.095Z,7.38
2023-02-01T07:14:51.533Z,9.98
2023-02-01T07:19:05.536Z,13.52
2023-02-01T07:23:17.968Z,5.07
2023-02-01T07:27:30.335Z,3.95
2023-02-01T07:31:42.730Z,2.75
2023-02-01T07:35:55.196Z,3.08
2023-02-01T07:40:07.966Z,0.85
2023-02-01T07:44:24.009Z,11.60
2023-02-01T07:48:36.384Z,7.80
2023-02-01T07:52:48.850Z,9.57
2023-02-01T07:57:01.219Z,7.00
2023-02-01T08:01:25.844Z,8.05
2023-02-01T08:05:38.235Z,7.90
2023-02-01T08:09:50.619Z,3.30
2023-02-01T08:14:03.082Z,10.63
2023-02-01T08:18:17.795Z,14.40
2023-02-01T08:22:34.410Z,11.75
2023-02-01T08:26:46.883Z,11.77
2023-02-01T08:30:59.256Z,11.15
2023-02-01T08:35:11.793Z,7.68
2023-02-01T08:39:24.068Z,8.68
2023-02-01T08:43:38.075Z,5.22
2023-02-01T08:47:58.685Z,14.50
2023-02-01T08:52:15.963Z,11.00
2023-02-01T08:56:29.153Z,16.17
2023-02-01T09:00:42.459Z,32.97
2023-02-01T09:04:55.084Z,19.65
2023-02-01T09:09:07.392Z,38.90
2023-02-01T09:13:19.772Z,32.67
2023-02-01T09:17:32.151Z,38.88
2023-02-01T09:21:44.512Z,31.95
2023-02-01T09:26:01.535Z,33.15
2023-02-01T09:30:19.152Z,45.40
2023-02-01T09:34:32.636Z,22.48
2023-02-01T09:38:52.855Z,12.05
2023-02-01T09:43:15.023Z,13.05
2023-02-01T09:47:29.027Z,11.93
2023-02-01T09:51:49.686Z,13.38
2023-02-01T09:56:08.105Z,16.95
2023-02-01T10:00:31.438Z,14.38
2023-02-01T10:04:43.887Z,8.75
2023-02-01T10:09:00.541Z,10.30
2023-02-01T10:13:24.756Z,10.60
2023-02-01T10:18:11.970Z,8.98
2023-02-01T10:23:11.480Z,5.55
2023-02-01T10:27:32.515Z,7.93
2023-02-01T10:31:45.699Z,7.60
2023-02-01T10:36:08.037Z,6.80
2023-02-01T10:40:26.337Z,9.90
2023-02-01T10:44:46.043Z,9.43
2023-02-01T10:49:02.114Z,7.63
2023-02-01T10:53:30.542Z,8.00
2023-02-01T10:57:42.910Z,10.15
2023-02-01T11:02:06.818Z,11.90
2023-02-01T11:06:19.399Z,9.43
2023-02-01T11:10:43.827Z,11.98
2023-02-01T11:15:23.663Z,7.38
2023-02-01T11:19:36.284Z,14.33
2023-02-01T11:23:48.921Z,12.48
2023-02-01T11:28:03.146Z,9.25
2023-02-01T11:32:19.116Z,6.88
2023-02-01T11:36:34.012Z,9.85
2023-02-01T11:40:46.589Z,9.77
2023-02-01T11:45:22.152Z,9.82
2023-02-01T11:49:34.756Z,6.68
2023-02-01T11:54:17.443Z,8.90
2023-02-01T11:58:37.554Z,6.75
2023-02-01T12:03:01.741Z,5.30
2023-02-01T12:07:53.778Z,7.47
2023-02-01T12:12:20.854Z,6.80
2023-02-01T12:17:05.924Z,6.20
2023-02-01T12:21:53.627Z,6.35
2023-02-01T12:26:37.683Z,7.22
2023-02-01T12:31:11.483Z,8.50
2023-02-01T12:35:45.791Z,5.63
2023-02-01T12:40:23.388Z,10.20
2023-02-01T12:45:00.138Z,7.55
2023-02-01T12:49:35.129Z,9.20
2023-02-01T12:53:53.147Z,15.30
2023-02-01T12:58:24.289Z,9.13
2023-02-01T13:03:16.862Z,9.48
2023-02-01T13:07:39.573Z,10.52
2023-02-01T13:11:55.616Z,11.10
2023-02-01T13:16:25.778Z,6.05
2023-02-01T13:20:59.946Z,10.23
2023-02-01T13:25:17.486Z,10.40
2023-02-01T13:29:31.742Z,9.65
2023-02-01T13:34:05.286Z,10.10
2023-02-01T13:38:56.270Z,10.93
2023-02-01T13:43:15.746Z,10.30
2023-02-01T13:47:28.498Z,8.90
2023-02-01T13:51:52.035Z,9.73
2023-02-01T13:56:28.417Z,10.00
2023-02-01T14:00:41.982Z,10.75
2023-02-01T14:04:54.391Z,14.18
2023-02-01T14:09:10.261Z,12.65
2023-02-01T14:13:38.247Z,19.50
2023-02-01T14:17:50.822Z,15.45
2023-02-01T14:22:25.514Z,10.93
2023-02-01T14:26:53.597Z,15.90
2023-02-01T14:31:19.461Z,11.00
2023-02-01T14:35:31.898Z,17.27
2023-02-01T14:39:47.409Z,59.13
2023-02-01T14:44:02.718Z,20.00
2023-02-01T14:48:14.971Z,17.13
2023-02-01T14:52:35.928Z,17.33
2023-02-01T14:56:48.349Z,11.88
2023-02-01T15:01:07.451Z,12.70
2023-02-01T15:05:37.635Z,12.65
2023-02-01T15:09:50.403Z,16.00
2023-02-01T15:14:03.004Z,14.00
2023-02-01T15:18:19.863Z,15.05
2023-02-01T15:22:34.103Z,13.13
2023-02-01T15:26:46.568Z,11.80
2023-02-01T15:31:02.580Z,14.02
2023-02-01T15:35:37.481Z,10.82
2023-02-01T15:40:11.905Z,11.70
2023-02-01T15:44:39.215Z,11.73
2023-02-01T15:48:55.769Z,15.50
2023-02-01T15:53:18.964Z,19.88
2023-02-01T15:57:35.705Z,17.52
2023-02-01T16:01:49.522Z,17.17
2023-02-01T16:06:08.661Z,18.27
2023-02-01T16:10:28.237Z,27.80
2023-02-01T16:14:41.865Z,22.67
2023-02-01T16:18:54.281Z,28.20
2023-02-01T16:23:11.800Z,25.10
2023-02-01T16:27:24.975Z,21.10
2023-02-01T16:31:40.724Z,27.98
2023-02-01T16:35:58.965Z,30.20
2023-02-01T16:40:19.181Z,28.67
2023-02-01T16:48:50.210Z,34.13
2023-02-01T16:53:02.989Z,40.00
2023-02-01T16:57:17.905Z,57.95
2023-02-01T17:01:30.376Z,74.03
2023-02-01T17:05:42.739Z,84.72
2023-02-01T17:09:55.999Z,81.93
2023-02-01T17:14:17.663Z,90.15
2023-02-01T17:18:33.140Z,85.13
2023-02-01T17:22:45.510Z,74.45
2023-02-01T17:26:57.943Z,89.10
2023-02-01T17:31:15.942Z,70.82
2023-02-01T17:35:31.504Z,41.77
2023-02-01T17:39:55.813Z,75.55
2023-02-01T17:44:11.067Z,69.50
2023-02-01T17:48:24.068Z,77.82
2023-02-01T17:52:36.619Z,68.60
2023-02-01T17:56:49.336Z,75.50
2023-02-01T18:01:01.886Z,77.70
2023-02-01T18:05:22.162Z,68.28
2023-02-01T18:09:34.720Z,64.90
2023-02-01T18:13:48.658Z,58.30
2023-02-01T18:18:01.100Z,70.82
2023-02-01T18:22:18.542Z,58.72
2023-02-01T18:26:31.334Z,46.03
2023-02-01T18:30:48.665Z,30.95
2023-02-01T18:35:01.643Z,26.70
2023-02-01T18:39:14.423Z,28.08
2023-02-01T18:43:27.556Z,26.05
2023-02-01T18:47:40.656Z,28.33
2023-02-01T18:51:53.328Z,31.25
2023-02-01T18:56:06.504Z,27.02
2023-02-01T19:00:21.163Z,23.83
2023-02-01T19:04:33.532Z,22.20
2023-02-01T19:08:47.203Z,21.42
2023-02-01T19:13:00.029Z,24.85
2023-02-01T19:17:12.506Z,22.38
2023-02-01T19:21:25.076Z,19.77
2023-02-01T19:25:37.721Z,22.67
2023-02-01T19:29:50.274Z,19.63
2023-02-01T19:34:02.770Z,21.70
2023-02-01T19:38:15.110Z,20.75
2023-02-01T19:42:30.453Z,24.23
2023-02-01T19:46:43.491Z,20.50
2023-02-01T19:50:56.243Z,22.02
2023-02-01T19:55:10.025Z,19.00
2023-02-01T19:59:23.868Z,18.58
2023-02-01T20:03:35.574Z,21.52
2023-02-01T20:07:49.261Z,19.02
2023-02-01T20:12:03.837Z,17.95
2023-02-01T20:16:16.365Z,18.95
2023-02-01T20:20:29.991Z,20.00
2023-02-01T20:24:43.823Z,24.90
2023-02-01T20:28:57.585Z,23.48
2023-02-01T20:33:10.932Z,25.58
2023-02-01T20:37:23.335Z,21.75
2023-02-01T20:41:35.873Z,19.10
2023-02-01T20:45:50.001Z,18.45
2023-02-01T20:50:02.975Z,22.25
2023-02-01T20:54:15.442Z,21.63
2023-02-01T20:58:27.947Z,20.17
2023-02-01T21:02:40.470Z,16.88
2023-02-01T21:06:53.707Z,21.48
2023-02-01T21:11:09.741Z,15.93
2023-02-01T21:15:25.207Z,18.02
2023-02-01T21:19:44.024Z,20.42
2023-02-01T21:23:57.553Z,7.35
2023-02-01T21:28:13.483Z,21.42
2023-02-01T21:32:26.035Z,19.90
2023-02-01T21:36:38.589Z,23.95
2023-02-01T21:41:14.178Z,23.52
2023-02-01T21:45:26.881Z,20.20
2023-02-01T21:49:39.390Z,20.30
2023-02-01T21:53:51.822Z,18.33
2023-02-01T21:58:04.489Z,20.08
2023-02-01T22:02:17.806Z,15.07
2023-02-01T22:06:34.071Z,11.90
2023-02-01T22:10:46.715Z,16.08
2023-02-01T22:14:59.103Z,10.82
2023-02-01T22:19:12.828Z,14.35
2023-02-01T22:23:28.015Z,13.68
2023-02-01T22:28:30.825Z,12.35
2023-02-01T22:32:15.317Z,10.98
2023-02-01T22:36:28.005Z,9.63
2023-02-01T22:40:40.237Z,12.20
2023-02-01T22:44:52.559Z,10.13
2023-02-01T22:49:06.739Z,14.77
2023-02-01T22:53:21.218Z,10.48
2023-02-01T22:57:34.316Z,7.32
2023-02-01T23:01:46.908Z,7.68
2023-02-01T23:05:59.224Z,9.93
2023-02-01T23:10:13.084Z,11.13
2023-02-01T23:14:25.608Z,10.98
2023-02-01T23:18:38.353Z,10.63
2023-02-01T23:22:50.805Z,12.80
2023-02-01T23:27:05.773Z,17.20
2023-02-01T23:31:18.476Z,11.48
2023-02-01T23:35:30.781Z,16.27
2023-02-01T23:39:43.189Z,12.95
2023-02-01T23:43:58.303Z,12.43
2023-02-01T23:48:10.657Z,11.25
2023-02-01T23:52:23.506Z,12.50
2023-02-01T23:56:42.558Z,9.88
